Time;durP1;ratioP1;P1;durP2;ratioP2;P2;SDS_P1;SDS_P2;PMS_P1;PMS_P2;Temp;Humidity;BMP_temperature;BMP_pressure;BME280_temperature;BME280_humidity;BME280_pressure;Samples;Min_cycle;Max_cycle;Signal;HPM_P1;HPM_P2
2022/08/23 00:01:14;;;;;;;5.45;3.85;;;20.20;99.90;;;;;;5076726;28;20178;-85
2022/08/23 00:03:41;;;;;;;6.60;3.90;;;;;;;;;;5076676;28;20194;-86
2022/08/23 00:06:08;;;;;;;7.28;3.40;;;20.00;99.90;;;;;;5076717;28;20366;-86
2022/08/23 00:08:34;;;;;;;5.03;4.13;;;;;;;;;;5076657;28;20179;-86
2022/08/23 00:11:00;;;;;;;7.50;4.10;;;;;;;;;;5058565;28;20210;-85
2022/08/23 00:13:27;;;;;;;6.85;4.32;;;20.10;99.90;;;;;;5076680;28;20631;-86
2022/08/23 00:15:53;;;;;;;6.15;4.35;;;20.10;99.90;;;;;;5058519;28;20248;-86
2022/08/23 00:18:19;;;;;;;4.78;3.38;;;20.00;99.90;;;;;;5058724;28;20229;-85
2022/08/23 00:20:46;;;;;;;7.50;4.43;;;20.00;99.90;;;;;;5076720;28;20179;-85
2022/08/23 00:23:12;;;;;;;6.93;3.80;;;20.00;99.90;;;;;;5076330;28;20179;-85
2022/08/23 00:25:38;;;;;;;7.85;4.07;;;20.00;99.90;;;;;;5058670;28;20195;-85
2022/08/23 00:28:03;;;;;;;5.32;3.58;;;20.00;99.90;;;;;;5074755;28;20179;-84
2022/08/23 00:30:30;;;;;;;10.13;4.88;;;19.90;99.90;;;;;;5058592;28;20206;-85
2022/08/23 00:32:56;;;;;;;5.07;3.83;;;19.90;99.90;;;;;;5076420;28;20179;-85
2022/08/23 00:35:22;;;;;;;7.38;4.40;;;19.90;99.90;;;;;;5058665;28;20325;-86
2022/08/23 00:37:48;;;;;;;8.10;4.57;;;19.90;99.90;;;;;;5058100;28;20194;-85
2022/08/23 00:40:17;;;;;;;5.63;3.88;;;19.90;99.90;;;;;;5058150;28;20190;-85
2022/08/23 00:48:46;;;;;;;5.72;3.95;;;19.80;99.90;;;;;;5076315;28;20622;-85
2022/08/23 00:51:20;;;;;;;7.65;4.20;;;19.80;99.90;;;;;;5057949;28;20466;-86
2022/08/23 00:53:55;;;;;;;8.00;4.43;;;19.80;99.90;;;;;;5075980;28;20156;-86
2022/08/23 00:56:24;;;;;;;6.28;3.92;;;19.80;99.90;;;;;;5075869;28;20155;-85
2022/08/23 00:58:50;;;;;;;7.22;4.10;;;19.80;99.90;;;;;;5058093;28;20183;-86
2022/08/23 01:01:16;;;;;;;9.57;4.10;;;19.70;99.90;;;;;;5041225;28;20179;-86
2022/08/23 01:03:44;;;;;;;8.77;4.28;;;19.70;99.90;;;;;;5058204;28;20218;-85
2022/08/23 01:06:20;;;;;;;7.75;4.60;;;19.70;99.90;;;;;;5057890;28;20179;-86
2022/08/23 01:08:49;;;;;;;4.32;3.33;;;19.70;99.90;;;;;;5057976;28;20508;-86
2022/08/23 01:11:27;;;;;;;6.38;3.78;;;19.70;99.90;;;;;;5075599;28;20194;-86
2022/08/23 01:14:19;;;;;;;5.43;4.10;;;19.60;99.90;;;;;;5075949;28;20627;-85
2022/08/23 01:17:02;;;;;;;5.47;3.70;;;19.60;99.90;;;;;;5075788;28;20155;-86
2022/08/23 01:19:41;;;;;;;7.22;3.88;;;19.60;99.90;;;;;;5057968;28;20240;-85
2022/08/23 01:22:30;;;;;;;8.80;4.00;;;19.60;99.90;;;;;;5075850;28;20178;-86
2022/08/23 01:24:56;;;;;;;5.75;3.72;;;19.60;99.90;;;;;;5075447;28;20635;-85
2022/08/23 01:27:23;;;;;;;7.40;3.42;;;19.60;99.90;;;;;;5075635;28;20175;-85
2022/08/23 01:29:48;;;;;;;7.63;5.18;;;19.60;99.90;;;;;;5075547;28;20199;-86
2022/08/23 01:32:15;;;;;;;6.93;4.13;;;19.60;99.90;;;;;;5073676;28;20225;-85
2022/08/23 01:34:41;;;;;;;3.85;3.28;;;19.50;99.90;;;;;;5075458;28;20274;-85
2022/08/23 01:37:07;;;;;;;4.38;3.15;;;19.50;99.90;;;;;;5057196;28;20267;-86
2022/08/23 01:39:36;;;;;;;6.95;4.22;;;19.40;99.90;;;;;;5075005;28;20190;-86
2022/08/23 01:42:02;;;;;;;6.03;4.07;;;19.50;99.90;;;;;;5077838;28;20175;-87
2022/08/23 01:44:28;;;;;;;7.15;4.20;;;19.50;99.90;;;;;;5100259;28;20240;-86
2022/08/23 01:46:54;;;;;;;4.82;3.63;;;19.50;99.90;;;;;;5083520;28;20182;-86
2022/08/23 01:49:20;;;;;;;7.40;4.20;;;19.50;99.90;;;;;;5079408;28;20215;-86
2022/08/23 01:51:46;;;;;;;5.95;4.13;;;19.50;99.90;;;;;;5063681;28;20187;-87
2022/08/23 01:54:12;;;;;;;6.43;3.83;;;19.50;99.90;;;;;;5082616;28;20195;-86
2022/08/23 01:56:39;;;;;;;4.53;3.70;;;19.50;99.90;;;;;;5082121;28;20222;-86
2022/08/23 01:59:07;;;;;;;6.47;4.03;;;19.50;99.90;;;;;;5083752;28;20175;-87
2022/08/23 02:01:33;;;;;;;7.57;4.40;;;19.50;99.90;;;;;;5089066;28;20223;-86
2022/08/23 02:03:58;;;;;;;5.78;3.83;;;19.50;99.90;;;;;;5099591;28;20159;-86
2022/08/23 02:06:24;;;;;;;6.65;4.03;;;19.50;99.90;;;;;;5082517;28;20205;-86
2022/08/23 02:09:03;;;;;;;6.10;4.93;;;19.50;99.90;;;;;;5099696;28;20236;-86
2022/08/23 02:11:40;;;;;;;8.15;4.50;;;19.50;99.90;;;;;;5079693;28;20211;-85
2022/08/23 02:14:10;;;;;;;8.40;4.63;;;19.50;99.90;;;;;;5079305;28;20182;-87
2022/08/23 02:16:43;;;;;;;6.10;3.88;;;19.50;99.90;;;;;;5079294;28;20167;-86
2022/08/23 02:19:11;;;;;;;11.85;6.10;;;19.50;99.90;;;;;;5079148;28;20168;-86
2022/08/23 02:21:38;;;;;;;8.48;4.13;;;19.50;99.90;;;;;;5078610;28;20164;-85
2022/08/23 02:24:23;;;;;;;5.68;3.88;;;19.50;99.90;;;;;;5062249;28;20169;-86
2022/08/23 02:26:52;;;;;;;7.13;4.63;;;19.50;99.90;;;;;;5074658;28;20190;-86
2022/08/23 02:29:20;;;;;;;5.32;3.85;;;19.40;99.90;;;;;;5060346;28;20667;-86
2022/08/23 02:31:46;;;;;;;6.18;3.90;;;19.40;99.90;;;;;;5062990;28;20180;-86
2022/08/23 02:34:14;;;;;;;5.50;3.78;;;19.40;99.90;;;;;;5064298;28;20167;-86
2022/08/23 02:36:41;;;;;;;7.28;4.88;;;19.40;99.90;;;;;;5067349;28;20243;-86
2022/08/23 02:39:07;;;;;;;6.38;4.18;;;19.40;99.90;;;;;;5068807;28;20183;-87
2022/08/23 02:41:33;;;;;;;6.53;4.82;;;19.40;99.90;;;;;;5048238;28;20188;-86
2022/08/23 02:43:59;;;;;;;5.82;3.63;;;19.40;99.90;;;;;;5072352;28;20287;-86
2022/08/23 02:46:25;;;;;;;7.57;4.72;;;19.40;99.90;;;;;;5073547;28;20259;-86
2022/08/23 02:48:51;;;;;;;9.40;5.57;;;19.40;99.90;;;;;;5066402;28;20195;-86
2022/08/23 02:51:17;;;;;;;5.30;3.92;;;19.30;99.90;;;;;;5063387;28;20254;-87
2022/08/23 02:53:43;;;;;;;10.48;4.85;;;19.40;99.90;;;;;;5038998;28;20633;-86
2022/08/23 02:56:10;;;;;;;7.30;4.97;;;19.40;99.90;;;;;;5055930;28;20191;-87
2022/08/23 02:58:35;;;;;;;5.53;3.97;;;19.40;99.90;;;;;;5056499;28;20262;-87
2022/08/23 03:01:01;;;;;;;8.68;5.88;;;19.40;99.90;;;;;;5057141;28;20211;-87
2022/08/23 03:03:27;;;;;;;7.55;4.28;;;19.40;99.90;;;;;;5056676;28;20210;-87
2022/08/23 03:05:53;;;;;;;6.07;4.55;;;19.40;99.90;;;;;;5056619;28;20175;-85
2022/08/23 03:08:21;;;;;;;9.77;4.65;;;19.40;99.90;;;;;;5038628;28;20686;-85
2022/08/23 03:10:49;;;;;;;5.70;4.10;;;19.40;99.90;;;;;;5055028;28;20679;-86
2022/08/23 03:13:15;;;;;;;7.78;4.55;;;19.40;99.90;;;;;;5053822;28;20180;-86
2022/08/23 03:15:40;;;;;;;6.63;5.10;;;19.30;99.90;;;;;;5036023;28;20666;-86
2022/08/23 03:18:07;;;;;;;8.07;4.80;;;;;;;;;;5020203;28;20198;-86
2022/08/23 03:20:33;;;;;;;7.85;3.60;;;19.50;99.90;;;;;;5019243;28;20219;-86
2022/08/23 03:22:59;;;;;;;6.90;4.85;;;;;;;;;;5035977;28;20279;-86
2022/08/23 03:25:25;;;;;;;5.43;4.55;;;19.50;99.90;;;;;;5035661;28;20215;-86
2022/08/23 03:27:51;;;;;;;8.80;4.15;;;19.50;99.90;;;;;;5036079;28;20645;-85
2022/08/23 03:30:17;;;;;;;8.00;4.80;;;19.40;99.90;;;;;;5054127;28;20218;-85
2022/08/23 03:32:43;;;;;;;5.20;3.97;;;19.40;99.90;;;;;;5055855;28;20187;-84
2022/08/23 03:35:09;;;;;;;10.23;4.70;;;19.40;99.90;;;;;;5059930;28;20701;-84
2022/08/23 03:37:35;;;;;;;8.43;4.75;;;19.40;99.90;;;;;;5055076;28;20184;-85
2022/08/23 03:40:01;;;;;;;13.68;4.65;;;19.40;99.90;;;;;;5055705;28;20218;-85
2022/08/23 03:42:26;;;;;;;6.72;4.35;;;19.40;99.90;;;;;;5078175;28;20183;-86
2022/08/23 03:44:52;;;;;;;8.30;4.22;;;19.30;99.90;;;;;;5081240;28;20556;-85
2022/08/23 03:47:18;;;;;;;6.47;4.53;;;;;;;;;;5081411;28;20179;-86
2022/08/23 03:49:44;;;;;;;4.90;3.45;;;;;;;;;;5050521;28;20579;-85
2022/08/23 03:52:10;;;;;;;6.22;4.30;;;19.40;99.90;;;;;;5075934;28;20201;-86
2022/08/23 03:54:36;;;;;;;7.40;4.55;;;19.30;99.90;;;;;;5049382;28;20188;-85
2022/08/23 03:57:06;;;;;;;6.72;4.03;;;19.40;99.90;;;;;;5045839;28;20240;-85
2022/08/23 03:59:34;;;;;;;6.53;4.40;;;19.40;99.90;;;;;;5053411;28;20179;-86
2022/08/23 04:01:59;;;;;;;9.77;5.68;;;19.30;99.90;;;;;;5069568;28;20274;-84
2022/08/23 04:04:26;;;;;;;8.57;4.70;;;18.90;99.90;;;;;;5060333;28;20609;-84
2022/08/23 04:06:52;;;;;;;6.60;4.25;;;19.30;99.90;;;;;;5067461;28;20183;-86
2022/08/23 04:09:18;;;;;;;10.18;5.38;;;;;;;;;;5048328;28;20214;-86
2022/08/23 04:11:44;;;;;;;8.02;5.35;;;19.30;99.90;;;;;;5062140;28;20195;-85
2022/08/23 04:14:11;;;;;;;7.70;4.97;;;19.30;99.90;;;;;;5066625;28;20241;-86
2022/08/23 04:16:39;;;;;;;5.78;3.97;;;19.30;99.90;;;;;;5059699;28;20262;-86
2022/08/23 04:19:06;;;;;;;5.38;4.65;;;19.30;99.90;;;;;;5062536;28;20225;-85
2022/08/23 04:21:32;;;;;;;5.07;4.03;;;19.40;99.90;;;;;;5055449;28;20191;-85
2022/08/23 04:23:58;;;;;;;5.25;4.00;;;19.40;99.90;;;;;;5039473;28;20267;-85
2022/08/23 04:26:23;;;;;;;5.38;4.78;;;19.40;99.90;;;;;;5044582;28;20184;-86
2022/08/23 04:28:49;;;;;;;8.05;5.30;;;19.50;99.90;;;;;;5026285;28;20546;-86
2022/08/23 04:31:16;;;;;;;7.90;4.78;;;19.50;99.90;;;;;;5044440;28;20234;-87
2022/08/23 04:33:42;;;;;;;9.15;5.05;;;19.50;99.90;;;;;;5044107;28;20179;-85
2022/08/23 04:36:08;;;;;;;7.13;4.22;;;19.50;99.90;;;;;;5021220;28;20236;-86
2022/08/23 04:38:34;;;;;;;7.68;5.20;;;19.60;99.90;;;;;;5036087;28;20279;-85
2022/08/23 04:43:44;;;;;;;7.80;4.93;;;19.80;99.90;;;;;;5068507;28;20256;-85
2022/08/23 04:46:14;;;;;;;6.82;4.53;;;19.80;99.90;;;;;;5072523;28;20179;-86
2022/08/23 04:48:40;;;;;;;5.45;4.72;;;19.90;99.90;;;;;;5073432;28;20228;-86
2022/08/23 04:51:06;;;;;;;6.78;5.00;;;19.90;99.90;;;;;;5072955;28;20234;-86
2022/08/23 04:53:34;;;;;;;7.57;5.03;;;20.00;99.90;;;;;;5053809;28;20213;-85
2022/08/23 04:56:01;;;;;;;8.15;5.15;;;20.00;99.90;;;;;;5071320;28;20184;-85
2022/08/23 04:58:27;;;;;;;8.68;5.05;;;20.10;99.90;;;;;;5071653;28;20643;-85
2022/08/23 05:00:54;;;;;;;8.30;4.85;;;20.20;99.90;;;;;;5052704;28;20187;-84
2022/08/23 05:03:20;;;;;;;5.40;3.90;;;;;;;;;;5074069;28;20642;-85
2022/08/23 05:05:46;;;;;;;6.72;4.50;;;;;;;;;;5074094;28;20601;-84
2022/08/23 05:08:12;;;;;;;11.50;3.97;;;;;;;;;;5075181;28;20171;-83
2022/08/23 05:10:38;;;;;;;6.70;4.60;;;;;;;;;;5074708;28;20706;-84
2022/08/23 05:13:04;;;;;;;6.60;4.97;;;20.30;99.90;;;;;;5056980;28;20264;-85
2022/08/23 05:15:29;;;;;;;8.57;6.10;;;20.40;99.90;;;;;;5055945;28;20183;-85
2022/08/23 05:17:55;;;;;;;10.02;5.82;;;20.50;99.90;;;;;;5057096;28;20640;-85
2022/08/23 05:20:21;;;;;;;7.63;4.93;;;20.60;99.90;;;;;;5075065;28;20586;-84
2022/08/23 05:22:47;;;;;;;6.90;4.57;;;;;;;;;;5074655;28;20185;-85
2022/08/23 05:25:13;;;;;;;6.78;4.50;;;;;;;;;;5075058;28;20257;-85
2022/08/23 05:27:39;;;;;;;5.88;3.95;;;;;;;;;;5075001;28;20668;-85
2022/08/23 05:30:07;;;;;;;15.52;5.05;;;20.90;99.90;;;;;;5075004;28;20199;-84
2022/08/23 05:32:33;;;;;;;6.32;4.65;;;;;;;;;;5074775;28;20215;-85
2022/08/23 05:34:59;;;;;;;9.40;4.68;;;20.90;99.90;;;;;;5041080;28;20183;-84
2022/08/23 05:37:25;;;;;;;6.97;4.38;;;;;;;;;;5057331;28;20185;-85
2022/08/23 05:39:52;;;;;;;6.53;4.65;;;;;;;;;;5057035;28;20692;-84
2022/08/23 05:42:18;;;;;;;8.82;5.03;;;;;;;;;;5040754;28;20647;-83
2022/08/23 05:44:44;;;;;;;12.50;5.53;;;;;;;;;;5075783;28;20687;-85
2022/08/23 05:47:13;;;;;;;8.98;4.25;;;21.40;99.90;;;;;;5075580;28;20179;-86
2022/08/23 05:49:39;;;;;;;8.27;5.18;;;;;;;;;;5057485;28;20203;-84
2022/08/23 05:52:07;;;;;;;5.63;3.63;;;21.60;99.90;;;;;;5076781;28;20217;-84
2022/08/23 05:54:33;;;;;;;6.78;4.25;;;21.50;99.90;;;;;;5076574;28;20218;-84
2022/08/23 05:56:59;;;;;;;10.48;5.28;;;21.60;99.90;;;;;;5075726;28;20608;-87
2022/08/23 05:59:25;;;;;;;7.22;3.95;;;;;;;;;;5076008;28;20210;-87
2022/08/23 06:01:51;;;;;;;10.80;5.30;;;21.80;99.90;;;;;;5058573;28;20191;-85
2022/08/23 06:04:17;;;;;;;11.15;4.57;;;;;;;;;;5065342;28;20178;-86
2022/08/23 06:06:44;;;;;;;6.97;4.40;;;;;;;;;;5075296;28;20188;-86
2022/08/23 06:09:13;;;;;;;4.05;3.50;;;21.90;99.90;;;;;;5076595;28;20211;-88
2022/08/23 06:11:40;;;;;;;6.80;5.20;;;;;;;;;;5065962;28;20163;-86
2022/08/23 06:14:07;;;;;;;6.00;4.70;;;22.00;99.90;;;;;;5059062;28;20263;-85
2022/08/23 06:16:42;;;;;;;8.23;4.40;;;22.10;99.90;;;;;;5058008;28;20171;-88
2022/08/23 06:19:09;;;;;;;13.02;5.70;;;22.10;99.90;;;;;;5075815;28;20174;-87
2022/08/23 06:21:35;;;;;;;10.73;5.15;;;22.20;99.90;;;;;;5074564;28;20206;-86
2022/08/23 06:24:02;;;;;;;7.03;3.90;;;22.20;99.90;;;;;;5076439;28;20175;-86
2022/08/23 06:26:31;;;;;;;10.07;5.40;;;22.30;99.90;;;;;;5073785;28;20172;-87
2022/08/23 06:29:01;;;;;;;9.45;5.50;;;22.30;99.90;;;;;;5075654;28;20317;-86
2022/08/23 06:31:46;;;;;;;6.88;3.63;;;22.30;99.90;;;;;;5076483;28;20179;-88
2022/08/23 06:34:18;;;;;;;10.38;5.03;;;22.40;99.90;;;;;;5072620;28;20179;-87
2022/08/23 06:36:48;;;;;;;7.50;4.80;;;22.40;99.90;;;;;;5074203;28;20167;-85
2022/08/23 06:39:15;;;;;;;7.95;5.30;;;22.40;99.90;;;;;;5085583;28;20175;-85
2022/08/23 06:41:42;;;;;;;7.95;4.80;;;22.40;99.90;;;;;;5047030;28;20589;-87
2022/08/23 06:44:08;;;;;;;5.93;4.32;;;22.50;99.90;;;;;;5070551;28;20251;-86
2022/08/23 06:46:35;;;;;;;7.88;5.25;;;;;;;;;;5073050;28;20639;-87
2022/08/23 06:49:04;;;;;;;6.57;4.22;;;;;;;;;;5055220;28;20179;-86
2022/08/23 06:51:33;;;;;;;8.60;5.28;;;22.80;99.90;;;;;;5073412;28;20179;-85
2022/08/23 06:54:02;;;;;;;10.10;5.65;;;22.90;99.90;;;;;;5072973;28;20190;-86
2022/08/23 06:56:28;;;;;;;8.93;5.13;;;;;;;;;;5073683;28;20167;-86
2022/08/23 06:58:54;;;;;;;7.68;4.78;;;23.00;99.90;;;;;;5073505;28;20175;-85
2022/08/23 07:01:22;;;;;;;9.18;5.78;;;23.20;99.90;;;;;;5073136;28;20203;-86
2022/08/23 07:03:56;;;;;;;5.53;4.20;;;23.10;99.90;;;;;;5052909;28;20172;-86
2022/08/23 07:06:23;;;;;;;10.13;5.13;;;23.20;99.90;;;;;;5055415;28;20546;-87
2022/08/23 07:08:49;;;;;;;8.70;4.97;;;23.30;99.90;;;;;;5072761;28;20184;-86
2022/08/23 07:11:14;;;;;;;8.48;5.07;;;23.20;99.90;;;;;;5073043;28;20664;-86
2022/08/23 07:13:40;;;;;;;10.70;5.22;;;23.50;99.90;;;;;;5055430;28;20217;-85
2022/08/23 07:16:07;;;;;;;9.18;5.53;;;23.50;99.90;;;;;;5050162;28;20175;-85
2022/08/23 07:18:33;;;;;;;7.30;4.18;;;23.60;99.90;;;;;;5055309;28;20194;-86
2022/08/23 07:21:02;;;;;;;9.88;4.90;;;23.80;99.90;;;;;;5038514;28;20179;-85
2022/08/23 07:23:32;;;;;;;8.73;5.13;;;23.90;99.90;;;;;;5055205;28;20252;-84
2022/08/23 07:26:05;;;;;;;9.40;5.10;;;24.00;99.90;;;;;;5072756;28;20249;-86
2022/08/23 07:28:31;;;;;;;6.25;4.65;;;;;;;;;;5072486;28;20179;-86
2022/08/23 07:31:13;;;;;;;7.80;4.43;;;23.70;99.90;;;;;;5072840;28;20195;-87
2022/08/23 07:33:39;;;;;;;6.75;3.92;;;;;;;;;;5071558;28;20163;-85
2022/08/23 07:36:06;;;;;;;8.77;4.20;;;23.90;99.90;;;;;;5055032;28;20232;-85
2022/08/23 07:38:34;;;;;;;9.95;4.53;;;;;;;;;;5073156;28;20185;-84
2022/08/23 07:41:00;;;;;;;5.75;3.38;;;;;;;;;;5072959;28;20177;-85
2022/08/23 07:43:26;;;;;;;7.20;4.22;;;;;;;;;;5055062;28;20225;-84
2022/08/23 07:45:51;;;;;;;7.88;3.70;;;24.60;99.90;;;;;;5073184;28;20265;-84
2022/08/23 07:48:17;;;;;;;7.03;4.00;;;24.70;99.90;;;;;;5073153;28;20171;-85
2022/08/23 07:50:54;;;;;;;11.55;4.15;;;24.80;99.90;;;;;;5073234;28;20625;-84
2022/08/23 07:53:20;;;;;;;5.35;3.15;;;24.90;99.90;;;;;;5074121;28;20167;-84
2022/08/23 07:55:46;;;;;;;7.88;3.72;;;25.00;99.90;;;;;;5055929;28;20222;-85
2022/08/23 07:58:12;;;;;;;9.00;4.78;;;25.10;99.90;;;;;;5074493;28;20183;-85
2022/08/23 08:00:38;;;;;;;7.22;4.88;;;25.10;99.90;;;;;;5055906;28;20183;-86
2022/08/23 08:03:04;;;;;;;11.00;3.35;;;25.10;99.90;;;;;;5081449;28;20175;-88
2022/08/23 08:05:33;;;;;;;7.55;3.50;;;25.20;99.90;;;;;;5077586;28;20286;-85
2022/08/23 08:07:59;;;;;;;7.22;4.35;;;;;;;;;;5078145;28;20159;-87
2022/08/23 08:10:25;;;;;;;9.48;3.47;;;25.00;99.90;;;;;;5080093;28;20225;-87
2022/08/23 08:12:51;;;;;;;7.28;2.80;;;25.60;99.90;;;;;;5079838;28;20179;-92
2022/08/23 08:15:18;;;;;;;11.10;3.83;;;25.40;99.90;;;;;;5096621;28;20172;-86
2022/08/23 08:17:46;;;;;;;5.68;3.30;;;25.40;99.90;;;;;;5096542;28;20222;-88
2022/08/23 08:20:12;;;;;;;10.38;3.15;;;26.10;99.90;;;;;;5098795;28;20181;-88
2022/08/23 08:22:38;;;;;;;4.63;3.05;;;25.10;99.90;;;;;;5083771;28;20179;-87
2022/08/23 08:25:04;;;;;;;6.40;3.00;;;25.50;99.90;;;;;;5094447;28;20195;-89
2022/08/23 08:27:31;;;;;;;7.90;3.80;;;25.70;99.90;;;;;;5095196;28;20198;-86
2022/08/23 08:29:56;;;;;;;10.15;3.55;;;25.80;99.90;;;;;;5099638;28;20226;-88
2022/08/23 08:32:22;;;;;;;8.25;3.78;;;25.80;99.90;;;;;;5083375;28;20186;-86
2022/08/23 08:34:47;;;;;;;10.77;2.75;;;25.80;99.90;;;;;;5098871;28;20177;-87
2022/08/23 08:37:13;;;;;;;8.80;3.58;;;25.80;99.90;;;;;;5098248;28;20230;-85
2022/08/23 08:39:44;;;;;;;14.57;4.40;;;25.90;99.90;;;;;;5077953;28;20186;-84
2022/08/23 08:42:25;;;;;;;7.22;2.97;;;26.00;99.90;;;;;;5059689;28;20186;-85
2022/08/23 08:45:01;;;;;;;5.63;3.30;;;26.10;99.90;;;;;;5077299;28;20233;-88
2022/08/23 08:47:45;;;;;;;7.45;3.22;;;26.00;99.90;;;;;;5057837;28;20218;-85
2022/08/23 08:50:16;;;;;;;9.23;3.50;;;26.10;99.90;;;;;;5076645;28;20198;-84
2022/08/23 08:52:48;;;;;;;11.80;3.65;;;26.90;99.90;;;;;;5076475;28;20167;-84
2022/08/23 08:55:24;;;;;;;10.30;3.97;;;26.30;99.90;;;;;;5071091;28;20168;-86
2022/08/23 08:57:53;;;;;;;9.02;3.78;;;26.40;99.90;;;;;;5075789;28;20182;-86
2022/08/23 09:00:37;;;;;;;7.35;3.20;;;26.50;99.90;;;;;;5057096;28;20183;-86
2022/08/23 09:03:13;;;;;;;15.18;4.72;;;26.70;99.90;;;;;;5073996;28;20300;-85
2022/08/23 09:05:54;;;;;;;11.00;4.05;;;26.70;99.90;;;;;;5076209;28;20167;-86
2022/08/23 09:08:35;;;;;;;10.27;3.92;;;26.80;99.90;;;;;;5057687;28;20675;-85
2022/08/23 09:11:00;;;;;;;11.32;3.60;;;26.90;99.90;;;;;;5054752;28;20207;-87
2022/08/23 09:13:39;;;;;;;9.65;2.92;;;26.90;99.90;;;;;;5069279;28;20195;-86
2022/08/23 09:16:35;;;;;;;4.78;2.78;;;27.10;99.90;;;;;;5075698;28;20163;-85
2022/08/23 09:19:02;;;;;;;10.63;4.20;;;27.20;99.90;;;;;;5057335;28;20636;-85
2022/08/23 09:21:36;;;;;;;9.05;3.15;;;27.30;99.90;;;;;;5075232;28;20266;-85
2022/08/23 09:24:02;;;;;;;16.80;4.63;;;27.40;99.90;;;;;;5073992;28;20170;-87
2022/08/23 09:26:29;;;;;;;8.55;4.72;;;27.40;99.90;;;;;;5057804;28;20194;-85
2022/08/23 09:29:36;;;;;;;6.30;2.80;;;27.50;99.90;;;;;;5077583;28;20636;-87
2022/08/23 09:32:06;;;;;;;12.52;4.68;;;27.60;99.90;;;;;;5063991;28;20227;-84
2022/08/23 09:34:50;;;;;;;7.28;3.15;;;27.60;99.90;;;;;;5089146;28;20183;-87
2022/08/23 09:37:19;;;;;;;11.85;3.92;;;27.90;99.90;;;;;;5077560;28;20564;-86
2022/08/23 09:39:52;;;;;;;20.42;4.05;;;27.90;99.90;;;;;;5075295;28;20179;-87
2022/08/23 09:42:29;;;;;;;7.30;3.15;;;27.90;99.90;;;;;;5074757;28;20635;-87
2022/08/23 09:44:55;;;;;;;11.48;3.95;;;27.90;99.90;;;;;;5053474;28;20220;-87
2022/08/23 09:47:30;;;;;;;5.78;2.42;;;28.00;99.90;;;;;;5054939;28;20218;-86
2022/08/23 09:50:26;;;;;;;7.30;3.13;;;28.10;99.90;;;;;;5052761;28;20227;-86
2022/08/23 09:53:05;;;;;;;9.88;3.20;;;28.20;99.90;;;;;;5051891;28;20661;-87
2022/08/23 09:55:51;;;;;;;26.15;4.65;;;28.40;99.90;;;;;;5055420;28;20693;-85
2022/08/23 09:58:45;;;;;;;7.05;3.40;;;28.50;99.90;;;;;;5056154;28;20280;-85
2022/08/23 10:01:24;;;;;;;26.10;3.40;;;28.50;99.90;;;;;;5054761;28;20560;-86
2022/08/23 10:04:15;;;;;;;8.77;3.05;;;28.70;99.90;;;;;;5054929;28;20179;-86
2022/08/23 10:06:44;;;;;;;23.13;3.80;;;28.70;99.90;;;;;;5052193;28;20254;-86
2022/08/23 10:09:23;;;;;;;11.60;4.47;;;28.80;99.90;;;;;;5051914;28;20176;-87
2022/08/23 10:11:49;;;;;;;17.63;3.80;;;28.80;99.90;;;;;;5049162;28;20172;-87
2022/08/23 10:14:18;;;;;;;17.30;4.78;;;28.90;99.90;;;;;;5053483;28;20175;-87
2022/08/23 10:17:02;;;;;;;13.23;3.80;;;29.00;99.90;;;;;;5054630;28;20176;-85
2022/08/23 10:19:33;;;;;;;12.30;3.13;;;29.10;99.90;;;;;;5054726;28;20263;-87
2022/08/23 10:22:05;;;;;;;11.30;3.72;;;29.10;99.90;;;;;;5053606;28;20176;-85
2022/08/23 10:24:45;;;;;;;13.48;5.82;;;29.20;99.90;;;;;;5054562;28;20508;-86
2022/08/23 10:30:47;;;;;;;6.43;2.72;;;29.30;99.90;;;;;;5054280;28;20214;-85
2022/08/23 10:33:25;;;;;;;20.02;4.45;;;29.50;99.90;;;;;;5053178;28;20195;-86
2022/08/23 10:36:32;;;;;;;12.80;4.22;;;29.50;99.90;;;;;;5055639;28;20175;-84
2022/08/23 10:39:08;;;;;;;16.27;4.68;;;29.60;99.10;;;;;;5062212;28;20172;-85
2022/08/23 10:41:59;;;;;;;7.22;2.92;;;29.70;98.70;;;;;;5054112;28;20168;-85
2022/08/23 10:44:49;;;;;;;17.58;4.47;;;29.80;96.90;;;;;;5069863;28;20227;-85
2022/08/23 10:47:40;;;;;;;15.18;4.32;;;29.80;95.90;;;;;;5074881;28;20156;-86
2022/08/23 10:50:18;;;;;;;10.73;4.07;;;29.90;94.60;;;;;;5074028;28;20195;-85
2022/08/23 10:53:04;;;;;;;12.93;3.03;;;30.00;96.40;;;;;;5056411;28;20503;-83
2022/08/23 10:55:43;;;;;;;24.65;4.30;;;30.00;96.10;;;;;;5073974;28;20164;-84
2022/08/23 10:58:24;;;;;;;16.63;3.92;;;30.10;95.30;;;;;;5073807;28;20242;-85
2022/08/23 11:00:53;;;;;;;18.58;4.47;;;30.20;96.90;;;;;;5073498;28;20163;-85
2022/08/23 11:03:41;;;;;;;17.92;4.25;;;30.20;95.50;;;;;;5073744;28;20237;-84
2022/08/23 11:06:34;;;;;;;11.02;2.67;;;30.20;93.90;;;;;;5055868;28;20175;-89
2022/08/23 11:09:07;;;;;;;7.90;2.28;;;30.20;92.90;;;;;;5073436;28;20182;-85
2022/08/23 11:12:01;;;;;;;8.10;3.13;;;30.20;92.90;;;;;;5055537;28;20191;-85
2022/08/23 11:14:56;;;;;;;13.93;2.58;;;30.20;90.70;;;;;;5073387;28;20182;-85
2022/08/23 11:17:48;;;;;;;16.88;2.90;;;30.30;88.80;;;;;;5030472;28;20191;-85
2022/08/23 11:20:48;;;;;;;12.30;3.03;;;30.30;90.50;;;;;;5066025;28;20191;-84
2022/08/23 11:23:54;;;;;;;12.25;3.88;;;30.30;88.30;;;;;;5056227;28;20183;-84
2022/08/23 11:26:25;;;;;;;16.50;3.40;;;30.40;89.80;;;;;;5074306;28;20258;-84
2022/08/23 11:28:53;;;;;;;22.50;2.90;;;30.50;90.60;;;;;;5055911;28;20202;-85
2022/08/23 11:31:31;;;;;;;12.70;4.68;;;30.60;90.50;;;;;;5073570;28;20655;-85
2022/08/23 11:33:59;;;;;;;10.20;4.05;;;30.50;85.90;;;;;;5073361;28;20168;-85
2022/08/23 11:36:26;;;;;;;16.73;4.03;;;30.30;85.80;;;;;;5055595;28;20236;-85
2022/08/23 11:38:54;;;;;;;28.98;3.65;;;30.20;85.00;;;;;;5073057;28;20518;-84
2022/08/23 11:41:26;;;;;;;22.38;4.20;;;30.30;88.60;;;;;;5073386;28;20174;-86
2022/08/23 11:43:54;;;;;;;17.00;3.95;;;30.30;86.60;;;;;;5073069;28;20690;-84
2022/08/23 11:46:26;;;;;;;14.10;4.10;;;30.40;84.20;;;;;;5072891;28;20258;-84
2022/08/23 11:49:29;;;;;;;9.68;3.63;;;30.40;83.60;;;;;;5073079;28;20179;-83
2022/08/23 11:52:21;;;;;;;12.65;2.72;;;30.50;82.20;;;;;;5049003;28;20187;-84
2022/08/23 11:55:16;;;;;;;19.30;4.05;;;30.30;80.70;;;;;;5073026;28;20167;-85
2022/08/23 11:58:10;;;;;;;7.00;2.55;;;30.30;82.40;;;;;;5074618;28;20171;-86
2022/08/23 12:01:06;;;;;;;13.90;2.88;;;30.40;83.00;;;;;;5059685;28;20175;-84
2022/08/23 12:03:42;;;;;;;14.90;4.50;;;30.20;81.90;;;;;;5058970;28;20184;-86
2022/08/23 12:06:37;;;;;;;14.55;2.92;;;30.10;84.40;;;;;;5059441;28;20228;-86
2022/08/23 12:09:25;;;;;;;19.38;3.92;;;30.20;83.50;;;;;;5056709;28;20232;-84
2022/08/23 12:11:54;;;;;;;19.42;3.30;;;30.40;83.00;;;;;;5033706;28;20667;-85
2022/08/23 12:14:41;;;;;;;21.00;4.22;;;30.40;83.30;;;;;;5058590;28;20538;-86
2022/08/23 12:17:17;;;;;;;27.30;5.18;;;30.60;84.50;;;;;;5049028;28;20588;-84
2022/08/23 12:20:05;;;;;;;18.05;2.95;;;30.60;83.50;;;;;;5058748;28;20208;-84
2022/08/23 12:23:10;;;;;;;9.32;3.08;;;30.60;83.00;;;;;;5057088;28;20249;-83
2022/08/23 12:25:36;;;;;;;13.30;2.33;;;30.50;84.70;;;;;;5052306;28;20167;-85
2022/08/23 12:28:23;;;;;;;8.95;2.17;;;30.50;82.60;;;;;;5076473;28;20183;-84
2022/08/23 12:30:57;;;;;;;19.67;3.47;;;30.50;81.50;;;;;;5074835;28;20191;-82
2022/08/23 12:33:42;;;;;;;16.13;3.60;;;30.70;80.60;;;;;;5074859;28;20187;-86
2022/08/23 12:36:13;;;;;;;15.32;4.60;;;30.80;82.30;;;;;;5072162;28;20620;-85
2022/08/23 12:39:06;;;;;;;8.88;2.88;;;30.90;81.90;;;;;;5079220;28;20188;-85
2022/08/23 12:41:54;;;;;;;15.90;3.75;;;30.90;82.00;;;;;;5077237;28;20171;-86
2022/08/23 12:44:24;;;;;;;9.30;2.45;;;30.90;82.20;;;;;;5078827;28;20719;-86
2022/08/23 12:46:50;;;;;;;15.18;4.25;;;31.00;83.30;;;;;;5080528;28;20179;-86
2022/08/23 12:49:29;;;;;;;25.30;4.22;;;31.00;79.50;;;;;;5060460;28;20176;-84
2022/08/23 12:51:59;;;;;;;20.20;6.85;;;31.00;79.50;;;;;;5079103;28;20221;-86
2022/08/23 12:54:36;;;;;;;21.67;3.20;;;31.00;80.50;;;;;;5080941;28;20239;-85
2022/08/23 12:57:08;;;;;;;14.00;3.17;;;31.00;80.10;;;;;;5077441;28;20712;-86
2022/08/23 12:59:51;;;;;;;7.47;3.08;;;31.00;79.00;;;;;;5044771;28;20425;-86
2022/08/23 13:02:29;;;;;;;16.92;3.10;;;31.00;80.00;;;;;;5077131;28;20167;-87
2022/08/23 13:05:02;;;;;;;17.23;3.22;;;31.20;78.80;;;;;;5080206;28;20159;-86
2022/08/23 13:07:29;;;;;;;11.60;3.50;;;31.10;80.30;;;;;;5091232;28;20144;-88
2022/08/23 13:09:55;;;;;;;9.75;2.42;;;31.00;77.20;;;;;;5078074;28;20195;-86
2022/08/23 13:12:21;;;;;;;13.43;3.30;;;30.80;79.90;;;;;;5097234;28;20210;-86
2022/08/23 13:14:50;;;;;;;8.98;2.63;;;30.90;77.60;;;;;;5096319;28;20235;-84
2022/08/23 13:17:17;;;;;;;6.28;2.83;;;31.00;76.70;;;;;;5090460;28;20232;-83
2022/08/23 13:19:44;;;;;;;14.90;3.35;;;31.00;76.70;;;;;;5080401;28;20179;-85
2022/08/23 13:22:33;;;;;;;13.38;3.45;;;31.20;77.20;;;;;;5079804;28;20198;-84
2022/08/23 13:25:09;;;;;;;18.35;2.92;;;31.20;76.20;;;;;;5057145;28;20262;-84
2022/08/23 13:27:56;;;;;;;19.05;3.65;;;31.30;75.90;;;;;;5060163;28;20191;-84
2022/08/23 13:30:28;;;;;;;16.88;3.58;;;31.30;78.80;;;;;;5058962;28;20275;-84